sensor_id;sensor_type;location;lat;lon;timestamp;P1;durP1;ratioP1;P2;durP2;ratioP2
40745;SDS011;26454;51.164;4.488;2022-12-18T00:00:48;151.18;;;62.28;;
40745;SDS011;26454;51.164;4.488;2022-12-18T00:03:14;128.27;;;56.03;;
40745;SDS011;26454;51.164;4.488;2022-12-18T00:05:51;141.57;;;58.55;;
40745;SDS011;26454;51.164;4.488;2022-12-18T00:08:18;128.40;;;57.45;;
40745;SDS011;26454;51.164;4.488;2022-12-18T00:10:44;151.10;;;61.40;;
40745;SDS011;26454;51.164;4.488;2022-12-18T00:13:12;160.13;;;64.95;;
40745;SDS011;26454;51.164;4.488;2022-12-18T00:15:38;148.48;;;59.42;;
40745;SDS011;26454;51.164;4.488;2022-12-18T00:18:05;143.98;;;62.42;;
40745;SDS011;26454;51.164;4.488;2022-12-18T00:20:35;150.77;;;61.20;;
40745;SDS011;26454;51.164;4.488;2022-12-18T00:25:26;150.25;;;58.63;;
40745;SDS011;26454;51.164;4.488;2022-12-18T00:27:53;182.18;;;70.57;;
40745;SDS011;26454;51.164;4.488;2022-12-18T00:30:19;163.50;;;64.65;;
40745;SDS011;26454;51.164;4.488;2022-12-18T00:32:44;173.30;;;68.85;;
40745;SDS011;26454;51.164;4.488;2022-12-18T00:35:11;173.60;;;69.88;;
40745;SDS011;26454;51.164;4.488;2022-12-18T00:37:37;168.27;;;67.13;;
40745;SDS011;26454;51.164;4.488;2022-12-18T00:40:03;141.32;;;60.45;;
40745;SDS011;26454;51.164;4.488;2022-12-18T00:42:29;148.32;;;61.05;;
40745;SDS011;26454;51.164;4.488;2022-12-18T00:45:13;169.95;;;70.78;;
40745;SDS011;26454;51.164;4.488;2022-12-18T00:47:40;159.70;;;64.63;;
40745;SDS011;26454;51.164;4.488;2022-12-18T00:50:06;167.48;;;67.07;;
40745;SDS011;26454;51.164;4.488;2022-12-18T00:52:32;175.13;;;65.10;;
40745;SDS011;26454;51.164;4.488;2022-12-18T00:54:58;137.88;;;60.60;;
40745;SDS011;26454;51.164;4.488;2022-12-18T00:57:25;146.75;;;62.53;;
40745;SDS011;26454;51.164;4.488;2022-12-18T00:59:51;167.43;;;65.00;;
40745;SDS011;26454;51.164;4.488;2022-12-18T01:02:17;137.93;;;57.20;;
40745;SDS011;26454;51.164;4.488;2022-12-18T01:04:43;153.45;;;64.38;;
40745;SDS011;26454;51.164;4.488;2022-12-18T01:07:09;155.90;;;66.47;;
40745;SDS011;26454;51.164;4.488;2022-12-18T01:09:35;177.20;;;65.50;;
40745;SDS011;26454;51.164;4.488;2022-12-18T01:12:01;145.45;;;62.67;;
40745;SDS011;26454;51.164;4.488;2022-12-18T01:14:27;144.52;;;61.13;;
40745;SDS011;26454;51.164;4.488;2022-12-18T01:16:53;141.27;;;60.25;;
40745;SDS011;26454;51.164;4.488;2022-12-18T01:19:19;142.23;;;61.08;;
40745;SDS011;26454;51.164;4.488;2022-12-18T01:21:45;159.32;;;64.05;;
40745;SDS011;26454;51.164;4.488;2022-12-18T01:24:12;141.93;;;61.30;;
40745;SDS011;26454;51.164;4.488;2022-12-18T01:26:39;149.90;;;62.38;;
40745;SDS011;26454;51.164;4.488;2022-12-18T01:29:05;154.95;;;64.53;;
40745;SDS011;26454;51.164;4.488;2022-12-18T01:31:32;149.27;;;62.00;;
40745;SDS011;26454;51.164;4.488;2022-12-18T01:34:03;134.65;;;56.45;;
40745;SDS011;26454;51.164;4.488;2022-12-18T01:36:34;126.82;;;56.80;;
40745;SDS011;26454;51.164;4.488;2022-12-18T01:39:01;153.23;;;60.15;;
40745;SDS011;26454;51.164;4.488;2022-12-18T01:41:28;138.65;;;57.90;;
40745;SDS011;26454;51.164;4.488;2022-12-18T01:46:59;136.27;;;58.33;;
40745;SDS011;26454;51.164;4.488;2022-12-18T01:49:26;143.38;;;61.35;;
40745;SDS011;26454;51.164;4.488;2022-12-18T01:51:52;150.98;;;60.33;;
40745;SDS011;26454;51.164;4.488;2022-12-18T01:54:18;156.80;;;65.60;;
40745;SDS011;26454;51.164;4.488;2022-12-18T01:56:44;157.60;;;66.68;;
40745;SDS011;26454;51.164;4.488;2022-12-18T01:59:11;172.68;;;71.80;;
40745;SDS011;26454;51.164;4.488;2022-12-18T02:01:38;161.13;;;63.83;;
40745;SDS011;26454;51.164;4.488;2022-12-18T02:04:21;148.40;;;61.03;;
40745;SDS011;26454;51.164;4.488;2022-12-18T02:06:48;136.82;;;56.92;;
40745;SDS011;26454;51.164;4.488;2022-12-18T02:09:20;156.13;;;66.65;;
40745;SDS011;26454;51.164;4.488;2022-12-18T02:12:06;128.82;;;54.75;;
40745;SDS011;26454;51.164;4.488;2022-12-18T02:27:32;134.15;;;54.63;;
40745;SDS011;26454;51.164;4.488;2022-12-18T02:29:59;129.75;;;58.33;;
40745;SDS011;26454;51.164;4.488;2022-12-18T02:32:30;129.77;;;56.22;;
40745;SDS011;26454;51.164;4.488;2022-12-18T02:34:57;116.55;;;52.10;;
40745;SDS011;26454;51.164;4.488;2022-12-18T02:37:24;122.43;;;51.35;;
40745;SDS011;26454;51.164;4.488;2022-12-18T02:39:51;114.93;;;51.47;;
40745;SDS011;26454;51.164;4.488;2022-12-18T02:42:18;125.78;;;56.72;;
40745;SDS011;26454;51.164;4.488;2022-12-18T02:44:46;120.05;;;50.70;;
40745;SDS011;26454;51.164;4.488;2022-12-18T02:47:13;122.45;;;53.72;;
40745;SDS011;26454;51.164;4.488;2022-12-18T02:52:12;112.18;;;51.05;;
40745;SDS011;26454;51.164;4.488;2022-12-18T02:54:55;109.05;;;50.63;;
40745;SDS011;26454;51.164;4.488;2022-12-18T02:57:33;123.63;;;52.28;;
40745;SDS011;26454;51.164;4.488;2022-12-18T03:00:04;118.55;;;51.60;;
40745;SDS011;26454;51.164;4.488;2022-12-18T03:02:44;94.97;;;44.20;;
40745;SDS011;26454;51.164;4.488;2022-12-18T03:05:22;112.83;;;49.73;;
40745;SDS011;26454;51.164;4.488;2022-12-18T03:07:57;99.60;;;47.28;;
40745;SDS011;26454;51.164;4.488;2022-12-18T03:10:25;113.55;;;51.50;;
40745;SDS011;26454;51.164;4.488;2022-12-18T03:12:54;99.93;;;46.28;;
40745;SDS011;26454;51.164;4.488;2022-12-18T03:15:31;109.85;;;49.42;;
40745;SDS011;26454;51.164;4.488;2022-12-18T03:18:02;101.70;;;46.78;;
40745;SDS011;26454;51.164;4.488;2022-12-18T03:20:31;111.28;;;47.65;;
40745;SDS011;26454;51.164;4.488;2022-12-18T03:23:01;92.20;;;43.97;;
40745;SDS011;26454;51.164;4.488;2022-12-18T03:25:28;122.00;;;47.40;;
40745;SDS011;26454;51.164;4.488;2022-12-18T03:27:56;102.75;;;46.67;;
40745;SDS011;26454;51.164;4.488;2022-12-18T03:30:24;97.68;;;45.75;;
40745;SDS011;26454;51.164;4.488;2022-12-18T03:32:52;109.00;;;47.45;;
40745;SDS011;26454;51.164;4.488;2022-12-18T03:35:24;92.82;;;43.63;;
40745;SDS011;26454;51.164;4.488;2022-12-18T03:37:52;88.93;;;42.67;;
40745;SDS011;26454;51.164;4.488;2022-12-18T03:40:19;91.35;;;42.63;;
40745;SDS011;26454;51.164;4.488;2022-12-18T03:42:52;97.07;;;45.60;;
40745;SDS011;26454;51.164;4.488;2022-12-18T03:45:32;91.22;;;43.80;;
40745;SDS011;26454;51.164;4.488;2022-12-18T03:53:29;85.55;;;39.15;;
40745;SDS011;26454;51.164;4.488;2022-12-18T03:55:58;72.82;;;39.25;;
40745;SDS011;26454;51.164;4.488;2022-12-18T03:58:25;78.57;;;38.38;;
40745;SDS011;26454;51.164;4.488;2022-12-18T04:00:53;82.15;;;40.15;;
40745;SDS011;26454;51.164;4.488;2022-12-18T04:03:21;94.88;;;46.65;;
40745;SDS011;26454;51.164;4.488;2022-12-18T04:05:48;96.50;;;42.53;;
40745;SDS011;26454;51.164;4.488;2022-12-18T04:08:16;88.18;;;39.83;;
40745;SDS011;26454;51.164;4.488;2022-12-18T04:10:42;80.57;;;40.88;;
40745;SDS011;26454;51.164;4.488;2022-12-18T04:13:08;80.80;;;40.13;;
40745;SDS011;26454;51.164;4.488;2022-12-18T04:15:35;84.20;;;38.53;;
40745;SDS011;26454;51.164;4.488;2022-12-18T04:18:02;83.88;;;37.40;;
40745;SDS011;26454;51.164;4.488;2022-12-18T04:20:29;81.28;;;41.08;;
40745;SDS011;26454;51.164;4.488;2022-12-18T04:22:55;87.38;;;42.42;;
40745;SDS011;26454;51.164;4.488;2022-12-18T04:25:21;87.30;;;40.10;;
40745;SDS011;26454;51.164;4.488;2022-12-18T04:27:48;88.40;;;40.00;;
40745;SDS011;26454;51.164;4.488;2022-12-18T04:30:14;77.88;;;39.20;;
40745;SDS011;26454;51.164;4.488;2022-12-18T04:32:40;81.75;;;40.15;;
40745;SDS011;26454;51.164;4.488;2022-12-18T04:35:06;81.43;;;39.72;;
40745;SDS011;26454;51.164;4.488;2022-12-18T04:37:35;82.00;;;39.40;;
40745;SDS011;26454;51.164;4.488;2022-12-18T04:40:01;81.55;;;38.75;;
40745;SDS011;26454;51.164;4.488;2022-12-18T04:42:27;91.22;;;41.00;;
40745;SDS011;26454;51.164;4.488;2022-12-18T04:44:53;77.20;;;39.50;;
40745;SDS011;26454;51.164;4.488;2022-12-18T04:47:19;84.70;;;37.20;;
40745;SDS011;26454;51.164;4.488;2022-12-18T04:49:45;82.68;;;39.70;;
40745;SDS011;26454;51.164;4.488;2022-12-18T04:52:11;72.07;;;36.45;;
40745;SDS011;26454;51.164;4.488;2022-12-18T04:54:37;72.22;;;36.75;;
40745;SDS011;26454;51.164;4.488;2022-12-18T04:57:03;67.28;;;34.80;;
40745;SDS011;26454;51.164;4.488;2022-12-18T04:59:29;75.70;;;36.25;;
40745;SDS011;26454;51.164;4.488;2022-12-18T05:01:55;68.45;;;33.78;;
40745;SDS011;26454;51.164;4.488;2022-12-18T05:04:21;76.82;;;37.63;;
40745;SDS011;26454;51.164;4.488;2022-12-18T05:06:47;71.47;;;37.78;;
40745;SDS011;26454;51.164;4.488;2022-12-18T05:09:13;80.18;;;36.65;;
40745;SDS011;26454;51.164;4.488;2022-12-18T05:11:39;83.95;;;36.63;;
40745;SDS011;26454;51.164;4.488;2022-12-18T05:14:05;64.13;;;34.65;;
40745;SDS011;26454;51.164;4.488;2022-12-18T05:16:31;72.82;;;36.45;;
40745;SDS011;26454;51.164;4.488;2022-12-18T05:18:57;69.80;;;34.03;;
40745;SDS011;26454;51.164;4.488;2022-12-18T05:21:23;76.63;;;36.67;;
40745;SDS011;26454;51.164;4.488;2022-12-18T05:23:49;65.85;;;34.65;;
40745;SDS011;26454;51.164;4.488;2022-12-18T05:26:16;61.67;;;34.13;;
40745;SDS011;26454;51.164;4.488;2022-12-18T05:28:42;61.83;;;33.50;;
40745;SDS011;26454;51.164;4.488;2022-12-18T05:31:09;64.80;;;32.47;;
40745;SDS011;26454;51.164;4.488;2022-12-18T05:33:35;68.70;;;35.30;;
40745;SDS011;26454;51.164;4.488;2022-12-18T05:36:03;59.40;;;33.53;;
40745;SDS011;26454;51.164;4.488;2022-12-18T05:38:30;65.13;;;32.90;;
40745;SDS011;26454;51.164;4.488;2022-12-18T05:40:58;65.50;;;33.20;;
40745;SDS011;26454;51.164;4.488;2022-12-18T05:43:24;68.72;;;33.60;;
40745;SDS011;26454;51.164;4.488;2022-12-18T05:45:51;62.50;;;34.33;;
40745;SDS011;26454;51.164;4.488;2022-12-18T05:48:17;69.30;;;36.05;;
40745;SDS011;26454;51.164;4.488;2022-12-18T05:50:45;68.20;;;34.72;;
40745;SDS011;26454;51.164;4.488;2022-12-18T05:53:11;59.38;;;31.20;;
40745;SDS011;26454;51.164;4.488;2022-12-18T05:55:38;66.03;;;33.83;;
40745;SDS011;26454;51.164;4.488;2022-12-18T05:58:05;63.13;;;32.53;;
40745;SDS011;26454;51.164;4.488;2022-12-18T06:00:32;62.97;;;31.25;;
40745;SDS011;26454;51.164;4.488;2022-12-18T06:02:59;59.08;;;29.33;;
40745;SDS011;26454;51.164;4.488;2022-12-18T06:05:26;59.30;;;29.30;;
40745;SDS011;26454;51.164;4.488;2022-12-18T06:07:52;60.00;;;31.38;;
40745;SDS011;26454;51.164;4.488;2022-12-18T06:10:19;52.22;;;30.23;;
40745;SDS011;26454;51.164;4.488;2022-12-18T06:12:45;52.85;;;29.70;;
40745;SDS011;26454;51.164;4.488;2022-12-18T06:15:11;63.47;;;31.33;;
40745;SDS011;26454;51.164;4.488;2022-12-18T06:17:37;64.97;;;29.77;;
40745;SDS011;26454;51.164;4.488;2022-12-18T06:20:04;55.83;;;30.10;;
40745;SDS011;26454;51.164;4.488;2022-12-18T06:22:31;64.50;;;34.08;;
40745;SDS011;26454;51.164;4.488;2022-12-18T06:24:57;65.60;;;31.10;;
40745;SDS011;26454;51.164;4.488;2022-12-18T06:27:24;66.75;;;32.53;;
40745;SDS011;26454;51.164;4.488;2022-12-18T06:29:50;58.88;;;29.90;;
40745;SDS011;26454;51.164;4.488;2022-12-18T06:32:16;48.88;;;27.45;;
40745;SDS011;26454;51.164;4.488;2022-12-18T06:34:42;58.30;;;30.33;;
40745;SDS011;26454;51.164;4.488;2022-12-18T06:37:08;58.95;;;31.33;;
40745;SDS011;26454;51.164;4.488;2022-12-18T06:39:34;55.70;;;30.65;;
40745;SDS011;26454;51.164;4.488;2022-12-18T06:42:00;48.85;;;27.52;;
40745;SDS011;26454;51.164;4.488;2022-12-18T06:44:26;54.17;;;29.48;;
40745;SDS011;26454;51.164;4.488;2022-12-18T06:46:53;61.55;;;30.20;;
40745;SDS011;26454;51.164;4.488;2022-12-18T06:49:20;59.05;;;29.60;;
40745;SDS011;26454;51.164;4.488;2022-12-18T06:51:46;62.92;;;31.17;;
40745;SDS011;26454;51.164;4.488;2022-12-18T06:54:12;59.58;;;30.50;;
40745;SDS011;26454;51.164;4.488;2022-12-18T06:56:38;53.78;;;28.27;;
40745;SDS011;26454;51.164;4.488;2022-12-18T06:59:05;57.63;;;29.55;;
40745;SDS011;26454;51.164;4.488;2022-12-18T07:01:32;51.47;;;28.33;;
40745;SDS011;26454;51.164;4.488;2022-12-18T07:03:58;64.07;;;28.95;;
40745;SDS011;26454;51.164;4.488;2022-12-18T07:06:25;52.72;;;29.33;;
40745;SDS011;26454;51.164;4.488;2022-12-18T07:08:51;54.20;;;29.73;;
40745;SDS011;26454;51.164;4.488;2022-12-18T07:11:19;50.90;;;28.45;;
40745;SDS011;26454;51.164;4.488;2022-12-18T07:13:45;52.90;;;27.85;;
40745;SDS011;26454;51.164;4.488;2022-12-18T07:16:18;55.60;;;28.35;;
40745;SDS011;26454;51.164;4.488;2022-12-18T07:18:44;60.60;;;30.00;;
40745;SDS011;26454;51.164;4.488;2022-12-18T07:21:12;52.90;;;30.30;;
40745;SDS011;26454;51.164;4.488;2022-12-18T07:23:38;56.50;;;30.50;;
40745;SDS011;26454;51.164;4.488;2022-12-18T07:26:06;58.30;;;29.33;;
40745;SDS011;26454;51.164;4.488;2022-12-18T07:28:34;57.38;;;29.52;;
40745;SDS011;26454;51.164;4.488;2022-12-18T07:31:04;55.67;;;27.63;;
40745;SDS011;26454;51.164;4.488;2022-12-18T07:33:31;51.13;;;27.00;;
40745;SDS011;26454;51.164;4.488;2022-12-18T07:35:58;53.90;;;27.25;;
40745;SDS011;26454;51.164;4.488;2022-12-18T07:38:24;50.85;;;26.15;;
40745;SDS011;26454;51.164;4.488;2022-12-18T07:40:50;60.47;;;29.58;;
40745;SDS011;26454;51.164;4.488;2022-12-18T07:43:16;53.47;;;27.55;;
40745;SDS011;26454;51.164;4.488;2022-12-18T07:45:42;50.63;;;25.20;;
40745;SDS011;26454;51.164;4.488;2022-12-18T07:48:09;52.33;;;27.95;;
40745;SDS011;26454;51.164;4.488;2022-12-18T07:50:35;49.55;;;26.05;;
40745;SDS011;26454;51.164;4.488;2022-12-18T07:53:01;53.20;;;25.30;;
40745;SDS011;26454;51.164;4.488;2022-12-18T07:55:29;50.35;;;27.70;;
40745;SDS011;26454;51.164;4.488;2022-12-18T07:57:55;47.47;;;27.40;;
40745;SDS011;26454;51.164;4.488;2022-12-18T08:00:21;52.53;;;27.02;;
40745;SDS011;26454;51.164;4.488;2022-12-18T08:02:47;45.63;;;26.23;;
40745;SDS011;26454;51.164;4.488;2022-12-18T08:05:14;50.15;;;27.08;;
40745;SDS011;26454;51.164;4.488;2022-12-18T08:07:40;46.72;;;27.20;;
40745;SDS011;26454;51.164;4.488;2022-12-18T08:10:06;49.35;;;27.48;;
40745;SDS011;26454;51.164;4.488;2022-12-18T08:12:32;47.20;;;28.15;;
40745;SDS011;26454;51.164;4.488;2022-12-18T08:14:58;51.00;;;27.50;;
40745;SDS011;26454;51.164;4.488;2022-12-18T08:17:24;52.90;;;29.30;;
40745;SDS011;26454;51.164;4.488;2022-12-18T08:19:50;55.95;;;26.25;;
40745;SDS011;26454;51.164;4.488;2022-12-18T08:22:16;47.35;;;26.92;;
40745;SDS011;26454;51.164;4.488;2022-12-18T08:24:42;42.90;;;25.55;;
40745;SDS011;26454;51.164;4.488;2022-12-18T08:27:08;46.10;;;25.55;;
40745;SDS011;26454;51.164;4.488;2022-12-18T08:29:34;45.25;;;27.13;;
40745;SDS011;26454;51.164;4.488;2022-12-18T08:32:00;46.25;;;26.38;;
40745;SDS011;26454;51.164;4.488;2022-12-18T08:34:27;48.08;;;25.35;;
40745;SDS011;26454;51.164;4.488;2022-12-18T08:36:53;48.17;;;27.00;;
40745;SDS011;26454;51.164;4.488;2022-12-18T08:39:20;45.38;;;25.48;;
40745;SDS011;26454;51.164;4.488;2022-12-18T08:41:46;42.78;;;24.95;;
40745;SDS011;26454;51.164;4.488;2022-12-18T08:44:32;46.25;;;24.80;;
40745;SDS011;26454;51.164;4.488;2022-12-18T08:47:07;44.53;;;25.35;;
40745;SDS011;26454;51.164;4.488;2022-12-18T08:49:34;41.03;;;23.20;;
40745;SDS011;26454;51.164;4.488;2022-12-18T08:52:00;40.70;;;24.02;;
40745;SDS011;26454;51.164;4.488;2022-12-18T08:54:27;36.45;;;22.98;;
40745;SDS011;26454;51.164;4.488;2022-12-18T08:56:53;41.85;;;25.83;;
40745;SDS011;26454;51.164;4.488;2022-12-18T08:59:20;42.55;;;25.27;;
40745;SDS011;26454;51.164;4.488;2022-12-18T09:01:46;39.53;;;24.38;;
40745;SDS011;26454;51.164;4.488;2022-12-18T09:04:13;34.05;;;22.40;;
40745;SDS011;26454;51.164;4.488;2022-12-18T09:06:39;41.53;;;23.77;;
40745;SDS011;26454;51.164;4.488;2022-12-18T09:09:06;40.28;;;23.02;;
40745;SDS011;26454;51.164;4.488;2022-12-18T09:11:32;38.80;;;22.15;;
40745;SDS011;26454;51.164;4.488;2022-12-18T09:13:59;45.28;;;24.00;;
40745;SDS011;26454;51.164;4.488;2022-12-18T09:16:26;39.42;;;25.17;;
40745;SDS011;26454;51.164;4.488;2022-12-18T09:18:53;41.10;;;24.65;;
40745;SDS011;26454;51.164;4.488;2022-12-18T09:21:24;38.92;;;22.42;;
40745;SDS011;26454;51.164;4.488;2022-12-18T09:23:50;30.75;;;21.05;;
40745;SDS011;26454;51.164;4.488;2022-12-18T09:26:17;37.28;;;22.15;;
40745;SDS011;26454;51.164;4.488;2022-12-18T09:28:43;37.63;;;22.83;;
40745;SDS011;26454;51.164;4.488;2022-12-18T09:31:10;38.63;;;21.48;;
40745;SDS011;26454;51.164;4.488;2022-12-18T09:33:36;39.45;;;23.40;;
40745;SDS011;26454;51.164;4.488;2022-12-18T09:36:05;34.35;;;21.60;;
40745;SDS011;26454;51.164;4.488;2022-12-18T09:38:31;36.58;;;21.70;;
40745;SDS011;26454;51.164;4.488;2022-12-18T09:43:46;37.20;;;21.20;;
40745;SDS011;26454;51.164;4.488;2022-12-18T09:46:17;36.03;;;22.55;;
40745;SDS011;26454;51.164;4.488;2022-12-18T09:48:46;43.15;;;22.85;;
40745;SDS011;26454;51.164;4.488;2022-12-18T09:51:15;34.88;;;23.13;;
40745;SDS011;26454;51.164;4.488;2022-12-18T09:53:41;35.72;;;22.45;;
40745;SDS011;26454;51.164;4.488;2022-12-18T09:56:12;35.57;;;22.03;;
40745;SDS011;26454;51.164;4.488;2022-12-18T09:58:42;40.08;;;23.42;;
40745;SDS011;26454;51.164;4.488;2022-12-18T10:01:23;36.30;;;24.42;;
40745;SDS011;26454;51.164;4.488;2022-12-18T10:03:49;36.90;;;21.35;;
40745;SDS011;26454;51.164;4.488;2022-12-18T10:08:51;33.20;;;21.85;;
40745;SDS011;26454;51.164;4.488;2022-12-18T10:11:23;35.92;;;20.45;;
40745;SDS011;26454;51.164;4.488;2022-12-18T10:13:57;35.55;;;21.35;;
40745;SDS011;26454;51.164;4.488;2022-12-18T10:16:32;30.13;;;19.65;;
40745;SDS011;26454;51.164;4.488;2022-12-18T10:21:39;34.83;;;21.73;;
40745;SDS011;26454;51.164;4.488;2022-12-18T10:26:55;31.65;;;19.98;;
40745;SDS011;26454;51.164;4.488;2022-12-18T10:29:25;30.92;;;19.80;;
40745;SDS011;26454;51.164;4.488;2022-12-18T10:31:51;35.15;;;21.08;;
40745;SDS011;26454;51.164;4.488;2022-12-18T10:34:17;33.83;;;20.55;;
40745;SDS011;26454;51.164;4.488;2022-12-18T10:36:43;30.45;;;19.85;;
40745;SDS011;26454;51.164;4.488;2022-12-18T10:41:42;31.27;;;19.60;;
40745;SDS011;26454;51.164;4.488;2022-12-18T10:44:16;33.83;;;20.55;;
40745;SDS011;26454;51.164;4.488;2022-12-18T10:46:46;35.10;;;21.80;;
40745;SDS011;26454;51.164;4.488;2022-12-18T10:49:26;33.90;;;20.88;;
40745;SDS011;26454;51.164;4.488;2022-12-18T10:52:14;34.35;;;20.73;;
40745;SDS011;26454;51.164;4.488;2022-12-18T10:54:46;32.67;;;21.75;;
40745;SDS011;26454;51.164;4.488;2022-12-18T10:57:35;30.80;;;19.15;;
40745;SDS011;26454;51.164;4.488;2022-12-18T11:02:46;30.85;;;18.75;;
40745;SDS011;26454;51.164;4.488;2022-12-18T11:05:23;31.95;;;20.35;;
40745;SDS011;26454;51.164;4.488;2022-12-18T11:07:50;29.88;;;18.83;;
40745;SDS011;26454;51.164;4.488;2022-12-18T11:10:20;31.85;;;20.02;;
40745;SDS011;26454;51.164;4.488;2022-12-18T11:12:46;30.75;;;20.40;;
40745;SDS011;26454;51.164;4.488;2022-12-18T11:15:20;28.75;;;18.85;;
40745;SDS011;26454;51.164;4.488;2022-12-18T11:17:47;33.25;;;20.80;;
40745;SDS011;26454;51.164;4.488;2022-12-18T11:22:57;28.00;;;19.85;;
40745;SDS011;26454;51.164;4.488;2022-12-18T11:25:24;30.30;;;20.30;;
40745;SDS011;26454;51.164;4.488;2022-12-18T11:27:51;31.70;;;19.35;;
40745;SDS011;26454;51.164;4.488;2022-12-18T11:30:28;30.15;;;18.35;;
40745;SDS011;26454;51.164;4.488;2022-12-18T11:35:25;25.55;;;19.15;;
40745;SDS011;26454;51.164;4.488;2022-12-18T11:37:54;29.67;;;17.98;;
40745;SDS011;26454;51.164;4.488;2022-12-18T11:40:36;26.58;;;18.35;;
40745;SDS011;26454;51.164;4.488;2022-12-18T11:43:06;29.63;;;18.80;;
40745;SDS011;26454;51.164;4.488;2022-12-18T11:46:18;23.92;;;16.52;;
40745;SDS011;26454;51.164;4.488;2022-12-18T11:48:27;27.73;;;17.90;;
40745;SDS011;26454;51.164;4.488;2022-12-18T11:50:55;26.73;;;19.15;;
40745;SDS011;26454;51.164;4.488;2022-12-18T11:53:22;32.22;;;20.00;;
40745;SDS011;26454;51.164;4.488;2022-12-18T12:16:37;29.25;;;19.98;;
40745;SDS011;26454;51.164;4.488;2022-12-18T12:21:42;27.05;;;18.67;;
40745;SDS011;26454;51.164;4.488;2022-12-18T12:24:16;31.67;;;19.38;;
40745;SDS011;26454;51.164;4.488;2022-12-18T12:27:01;27.55;;;19.95;;
40745;SDS011;26454;51.164;4.488;2022-12-18T12:35:17;28.98;;;19.98;;
40745;SDS011;26454;51.164;4.488;2022-12-18T12:40:06;30.35;;;20.55;;
40745;SDS011;26454;51.164;4.488;2022-12-18T12:45:24;33.10;;;21.13;;
40745;SDS011;26454;51.164;4.488;2022-12-18T12:47:52;29.98;;;19.73;;
40745;SDS011;26454;51.164;4.488;2022-12-18T12:50:19;30.08;;;18.95;;
40745;SDS011;26454;51.164;4.488;2022-12-18T12:52:50;31.67;;;20.48;;
40745;SDS011;26454;51.164;4.488;2022-12-18T12:55:22;29.33;;;19.58;;
40745;SDS011;26454;51.164;4.488;2022-12-18T12:57:53;27.20;;;18.50;;
40745;SDS011;26454;51.164;4.488;2022-12-18T13:00:20;32.28;;;19.50;;
40745;SDS011;26454;51.164;4.488;2022-12-18T13:10:26;23.75;;;18.50;;
40745;SDS011;26454;51.164;4.488;2022-12-18T13:12:53;33.25;;;20.35;;
40745;SDS011;26454;51.164;4.488;2022-12-18T13:15:25;28.40;;;19.92;;
40745;SDS011;26454;51.164;4.488;2022-12-18T13:25:47;29.15;;;20.02;;
40745;SDS011;26454;51.164;4.488;2022-12-18T13:28:14;26.25;;;19.27;;
40745;SDS011;26454;51.164;4.488;2022-12-18T13:30:41;26.23;;;20.00;;
40745;SDS011;26454;51.164;4.488;2022-12-18T13:40:53;30.88;;;20.73;;
40745;SDS011;26454;51.164;4.488;2022-12-18T13:43:22;28.58;;;19.15;;
40745;SDS011;26454;51.164;4.488;2022-12-18T13:48:36;29.77;;;21.00;;
40745;SDS011;26454;51.164;4.488;2022-12-18T13:51:04;33.20;;;22.35;;
40745;SDS011;26454;51.164;4.488;2022-12-18T13:53:39;25.40;;;18.38;;
40745;SDS011;26454;51.164;4.488;2022-12-18T13:56:09;30.45;;;20.73;;
40745;SDS011;26454;51.164;4.488;2022-12-18T13:58:35;32.30;;;21.50;;
40745;SDS011;26454;51.164;4.488;2022-12-18T14:01:02;32.38;;;20.52;;
40745;SDS011;26454;51.164;4.488;2022-12-18T14:03:29;28.38;;;20.92;;
40745;SDS011;26454;51.164;4.488;2022-12-18T14:06:00;30.70;;;20.48;;
40745;SDS011;26454;51.164;4.488;2022-12-18T14:08:27;34.40;;;21.67;;
40745;SDS011;26454;51.164;4.488;2022-12-18T14:10:55;31.65;;;22.33;;
40745;SDS011;26454;51.164;4.488;2022-12-18T14:13:33;34.75;;;22.23;;
40745;SDS011;26454;51.164;4.488;2022-12-18T14:16:01;33.13;;;22.02;;
40745;SDS011;26454;51.164;4.488;2022-12-18T14:21:17;31.70;;;22.20;;
40745;SDS011;26454;51.164;4.488;2022-12-18T14:23:44;34.03;;;21.52;;
40745;SDS011;26454;51.164;4.488;2022-12-18T14:26:26;36.22;;;22.00;;
40745;SDS011;26454;51.164;4.488;2022-12-18T14:28:54;34.00;;;23.08;;
40745;SDS011;26454;51.164;4.488;2022-12-18T14:31:28;35.85;;;22.35;;
40745;SDS011;26454;51.164;4.488;2022-12-18T14:33:54;32.88;;;23.63;;
40745;SDS011;26454;51.164;4.488;2022-12-18T14:36:24;35.20;;;23.05;;
40745;SDS011;26454;51.164;4.488;2022-12-18T14:38:51;39.25;;;24.52;;
40745;SDS011;26454;51.164;4.488;2022-12-18T14:41:19;33.35;;;22.25;;
40745;SDS011;26454;51.164;4.488;2022-12-18T14:43:47;35.10;;;23.33;;
40745;SDS011;26454;51.164;4.488;2022-12-18T14:49:02;34.88;;;24.15;;
40745;SDS011;26454;51.164;4.488;2022-12-18T14:51:29;41.60;;;23.90;;
40745;SDS011;26454;51.164;4.488;2022-12-18T14:54:03;36.85;;;24.45;;
40745;SDS011;26454;51.164;4.488;2022-12-18T14:56:36;34.92;;;25.83;;
40745;SDS011;26454;51.164;4.488;2022-12-18T14:59:12;34.55;;;25.60;;
40745;SDS011;26454;51.164;4.488;2022-12-18T15:04:33;42.20;;;25.30;;
40745;SDS011;26454;51.164;4.488;2022-12-18T15:07:04;38.20;;;25.42;;
40745;SDS011;26454;51.164;4.488;2022-12-18T15:09:31;35.58;;;24.80;;
40745;SDS011;26454;51.164;4.488;2022-12-18T15:11:58;40.00;;;25.13;;
40745;SDS011;26454;51.164;4.488;2022-12-18T15:16:58;40.08;;;26.27;;
40745;SDS011;26454;51.164;4.488;2022-12-18T15:19:28;45.33;;;27.00;;
40745;SDS011;26454;51.164;4.488;2022-12-18T15:21:58;41.00;;;26.67;;
40745;SDS011;26454;51.164;4.488;2022-12-18T15:24:26;46.55;;;27.75;;
40745;SDS011;26454;51.164;4.488;2022-12-18T15:26:52;44.53;;;27.10;;
40745;SDS011;26454;51.164;4.488;2022-12-18T15:29:20;46.75;;;28.38;;
40745;SDS011;26454;51.164;4.488;2022-12-18T15:31:57;39.72;;;25.15;;
40745;SDS011;26454;51.164;4.488;2022-12-18T15:34:24;40.65;;;25.83;;
40745;SDS011;26454;51.164;4.488;2022-12-18T15:36:51;41.53;;;26.38;;
40745;SDS011;26454;51.164;4.488;2022-12-18T15:39:17;38.38;;;25.35;;
40745;SDS011;26454;51.164;4.488;2022-12-18T15:41:43;43.45;;;27.42;;
40745;SDS011;26454;51.164;4.488;2022-12-18T15:44:29;46.85;;;26.17;;
40745;SDS011;26454;51.164;4.488;2022-12-18T15:46:55;42.10;;;26.08;;
40745;SDS011;26454;51.164;4.488;2022-12-18T15:49:21;46.60;;;28.58;;
40745;SDS011;26454;51.164;4.488;2022-12-18T15:51:49;42.58;;;26.85;;
40745;SDS011;26454;51.164;4.488;2022-12-18T15:54:17;48.85;;;27.10;;
40745;SDS011;26454;51.164;4.488;2022-12-18T15:57:03;41.85;;;26.48;;
40745;SDS011;26454;51.164;4.488;2022-12-18T15:59:47;45.72;;;27.30;;
40745;SDS011;26454;51.164;4.488;2022-12-18T16:02:14;41.95;;;26.60;;
40745;SDS011;26454;51.164;4.488;2022-12-18T16:04:41;42.63;;;25.83;;
40745;SDS011;26454;51.164;4.488;2022-12-18T16:07:08;42.28;;;26.55;;
40745;SDS011;26454;51.164;4.488;2022-12-18T16:09:34;40.50;;;24.85;;
40745;SDS011;26454;51.164;4.488;2022-12-18T16:12:00;45.88;;;25.60;;
40745;SDS011;26454;51.164;4.488;2022-12-18T16:14:27;40.05;;;24.65;;
40745;SDS011;26454;51.164;4.488;2022-12-18T16:16:56;44.80;;;25.17;;
40745;SDS011;26454;51.164;4.488;2022-12-18T16:19:23;40.47;;;24.83;;
40745;SDS011;26454;51.164;4.488;2022-12-18T16:21:50;43.25;;;25.73;;
40745;SDS011;26454;51.164;4.488;2022-12-18T16:24:17;42.00;;;26.75;;